createdAt,value
2024-02-24T00:01:30.966Z,13.06
2024-02-24T00:03:43.772Z,13.06
2024-02-24T00:05:57.190Z,13.12
2024-02-24T00:08:11.716Z,13.17
2024-02-24T00:10:24.636Z,13.17
2024-02-24T00:12:37.970Z,13.15
2024-02-24T00:14:51.147Z,13.11
2024-02-24T00:17:04.004Z,13.00
2024-02-24T00:19:16.721Z,12.95
2024-02-24T00:21:29.933Z,12.94
2024-02-24T00:23:43.471Z,12.93
2024-02-24T00:25:56.437Z,12.91
2024-02-24T00:28:11.596Z,12.93
2024-02-24T00:30:24.502Z,12.94
2024-02-24T00:32:37.215Z,12.95
2024-02-24T00:34:50.022Z,12.95
2024-02-24T00:37:02.828Z,12.97
2024-02-24T00:39:15.960Z,12.99
2024-02-24T00:41:28.827Z,13.07
2024-02-24T00:43:41.794Z,13.13
2024-02-24T00:45:54.484Z,13.16
2024-02-24T01:58:24.613Z,10.83
2024-02-24T02:00:38.322Z,10.76
2024-02-24T02:02:52.797Z,10.72
2024-02-24T02:05:05.492Z,10.69
2024-02-24T02:10:03.650Z,10.67
2024-02-24T02:12:16.646Z,10.62
2024-02-24T02:14:29.533Z,10.58
2024-02-24T02:16:42.476Z,10.51
2024-02-24T02:18:55.275Z,10.43
2024-02-24T02:21:09.939Z,10.34
2024-02-24T02:23:22.683Z,10.25
2024-02-24T02:25:35.805Z,10.17
2024-02-24T02:27:48.615Z,10.08
2024-02-24T02:30:03.775Z,10.01
2024-02-24T02:32:17.391Z,9.94
2024-02-24T02:34:30.570Z,9.86
2024-02-24T02:36:43.313Z,9.78
2024-02-24T02:38:55.942Z,9.71
2024-02-24T02:41:09.057Z,9.66
2024-02-24T02:43:21.995Z,9.64
2024-02-24T02:45:34.795Z,9.62
2024-02-24T02:47:47.882Z,9.61
2024-02-24T02:50:01.705Z,9.59
2024-02-24T02:52:14.714Z,9.56
2024-02-24T02:54:27.975Z,9.52
2024-02-24T04:30:07.168Z,7.67
2024-02-24T04:32:20.891Z,7.70
2024-02-24T04:34:31.568Z,7.65
2024-02-24T04:36:46.798Z,7.60
2024-02-24T04:39:00.326Z,7.56
2024-02-24T04:41:14.416Z,7.52
2024-02-24T04:43:33.349Z,7.48
2024-02-24T04:45:44.916Z,7.45
2024-02-24T04:47:55.787Z,7.43
2024-02-24T04:50:10.328Z,7.39
2024-02-24T04:52:20.938Z,7.38
2024-02-24T04:54:33.020Z,7.35
2024-02-24T04:56:43.786Z,7.34
2024-02-24T04:58:53.651Z,7.32
2024-02-24T05:01:03.330Z,7.30
2024-02-24T05:03:13.069Z,7.30
2024-02-24T05:05:22.942Z,7.29
2024-02-24T05:07:32.532Z,7.25
2024-02-24T05:09:42.090Z,7.23
2024-02-24T05:11:51.857Z,7.19
2024-02-24T05:14:01.322Z,7.17
2024-02-24T05:16:12.503Z,7.15
2024-02-24T05:18:22.300Z,7.11
2024-02-24T05:20:32.514Z,7.08
2024-02-24T05:22:41.898Z,7.05
2024-02-24T05:24:52.234Z,7.03
2024-02-24T05:27:01.679Z,7.01
2024-02-24T05:29:11.111Z,7.00
2024-02-24T05:31:21.311Z,6.97
2024-02-24T05:33:31.409Z,6.93
2024-02-24T05:35:41.632Z,6.91
2024-02-24T05:37:52.713Z,6.87
2024-02-24T05:40:02.293Z,6.82
2024-02-24T05:42:12.099Z,6.79
2024-02-24T05:44:21.791Z,6.77
2024-02-24T05:46:31.231Z,6.76
2024-02-24T05:48:41.475Z,6.74
2024-02-24T05:50:52.119Z,6.73
2024-02-24T05:53:01.624Z,6.69
2024-02-24T05:55:14.656Z,6.66
2024-02-24T05:57:25.744Z,6.63
2024-02-24T05:59:35.503Z,6.61
2024-02-24T06:01:45.393Z,6.58
2024-02-24T06:03:56.429Z,6.55
2024-02-24T06:06:09.006Z,6.53
2024-02-24T06:08:19.265Z,6.52
2024-02-24T06:10:29.722Z,6.52
2024-02-24T06:12:40.163Z,6.53
2024-02-24T06:14:50.492Z,6.53
2024-02-24T06:17:00.092Z,6.53
2024-02-24T06:19:09.551Z,6.51
2024-02-24T06:21:19.525Z,6.50
2024-02-24T06:23:29.553Z,6.49
2024-02-24T06:25:39.768Z,6.48
2024-02-24T06:27:49.741Z,6.47
2024-02-24T06:29:59.443Z,6.47
2024-02-24T06:32:10.461Z,6.46
2024-02-24T06:34:20.895Z,6.45
2024-02-24T06:36:30.706Z,6.46
2024-02-24T06:38:41.206Z,6.45
2024-02-24T06:40:51.136Z,6.42
2024-02-24T06:43:01.193Z,6.40
2024-02-24T06:45:12.706Z,6.37
2024-02-24T06:47:28.863Z,6.35
2024-02-24T06:49:39.534Z,6.33
2024-02-24T06:51:49.236Z,6.32
2024-02-24T06:53:58.733Z,6.34
2024-02-24T06:56:13.474Z,6.33
2024-02-24T06:58:23.479Z,6.34
2024-02-24T07:00:34.373Z,6.35
2024-02-24T07:02:44.400Z,6.37
2024-02-24T07:04:54.875Z,6.39
2024-02-24T07:07:05.395Z,6.42
2024-02-24T07:09:16.034Z,6.47
2024-02-24T07:11:25.481Z,6.49
2024-02-24T07:13:35.613Z,6.50
2024-02-24T07:15:45.767Z,6.49
2024-02-24T07:17:55.493Z,6.50
2024-02-24T07:20:05.634Z,6.50
2024-02-24T07:22:18.094Z,6.49
2024-02-24T07:24:25.771Z,6.49
2024-02-24T07:26:43.583Z,6.47
2024-02-24T07:28:54.105Z,6.51
2024-02-24T07:31:03.691Z,6.57
2024-02-24T07:33:13.741Z,6.58
2024-02-24T07:35:24.239Z,6.59
2024-02-24T07:37:34.000Z,6.63
2024-02-24T07:39:45.113Z,6.66
2024-02-24T07:41:55.465Z,6.72
2024-02-24T07:44:05.484Z,6.76
2024-02-24T07:46:21.391Z,6.82
2024-02-24T07:48:31.032Z,6.91
2024-02-24T07:50:41.320Z,6.98
2024-02-24T07:52:51.765Z,7.05
2024-02-24T07:55:01.421Z,7.11
2024-02-24T07:57:11.515Z,7.16
2024-02-24T07:59:21.178Z,7.21
2024-02-24T08:01:32.696Z,7.25
2024-02-24T08:03:42.329Z,7.28
2024-02-24T08:05:52.434Z,7.31
2024-02-24T08:08:02.109Z,7.35
2024-02-24T08:10:13.088Z,7.41
2024-02-24T08:12:22.695Z,7.46
2024-02-24T08:14:32.592Z,7.50
2024-02-24T08:16:42.689Z,7.54
2024-02-24T08:18:52.290Z,7.58
2024-02-24T08:21:07.124Z,7.61
2024-02-24T08:23:17.524Z,7.66
2024-02-24T08:25:28.137Z,7.68
2024-02-24T08:27:37.587Z,7.72
2024-02-24T08:29:47.435Z,7.75
2024-02-24T08:31:57.031Z,7.78
2024-02-24T08:34:07.995Z,7.79
2024-02-24T08:36:20.992Z,7.81
2024-02-24T08:38:30.933Z,7.84
2024-02-24T08:40:46.553Z,7.87
2024-02-24T08:42:56.728Z,7.87
2024-02-24T08:45:06.884Z,7.86
2024-02-24T08:47:16.478Z,7.86
2024-02-24T08:49:27.784Z,7.83
2024-02-24T08:51:37.324Z,7.81
2024-02-24T08:53:46.848Z,7.81
2024-02-24T08:55:56.874Z,7.81
2024-02-24T08:58:10.098Z,7.80
2024-02-24T09:00:21.134Z,7.80
2024-02-24T09:02:30.975Z,7.75
2024-02-24T09:04:44.246Z,7.71
2024-02-24T09:06:55.051Z,7.69
2024-02-24T09:09:06.295Z,7.66
2024-02-24T09:11:16.090Z,7.61
2024-02-24T09:13:26.259Z,7.55
2024-02-24T09:15:37.092Z,7.51
2024-02-24T09:17:49.273Z,7.48
2024-02-24T09:19:59.627Z,7.45
2024-02-24T09:22:09.660Z,7.40
2024-02-24T09:24:19.247Z,7.34
2024-02-24T09:26:29.435Z,7.29
2024-02-24T09:28:39.356Z,7.22
2024-02-24T09:30:49.844Z,7.17
2024-02-24T09:33:00.045Z,7.11
2024-02-24T09:35:11.239Z,7.10
2024-02-24T09:37:21.059Z,7.06
2024-02-24T09:39:31.036Z,7.01
2024-02-24T09:41:40.878Z,6.97
2024-02-24T09:43:50.286Z,6.94
2024-02-24T09:46:02.083Z,6.91
2024-02-24T09:48:12.871Z,6.90
2024-02-24T09:50:22.567Z,6.87
2024-02-24T09:52:32.896Z,6.84
2024-02-24T09:54:42.436Z,6.80
2024-02-24T09:56:54.934Z,6.77
2024-02-24T09:59:02.545Z,6.73
2024-02-24T10:01:12.315Z,6.69
2024-02-24T10:03:23.619Z,6.63
2024-02-24T10:05:33.254Z,6.59
2024-02-24T10:07:44.835Z,6.53
2024-02-24T10:09:55.121Z,6.48
2024-02-24T10:12:04.752Z,6.44
2024-02-24T10:14:14.660Z,6.41
2024-02-24T10:16:25.744Z,6.36
2024-02-24T10:18:36.013Z,6.30
2024-02-24T10:20:46.031Z,6.26
2024-02-24T10:22:55.584Z,6.22
2024-02-24T10:25:05.033Z,6.21
2024-02-24T10:27:15.336Z,6.18
2024-02-24T10:29:29.523Z,6.18
2024-02-24T10:31:39.810Z,6.18
2024-02-24T10:33:50.860Z,6.20
2024-02-24T10:36:01.711Z,6.21
2024-02-24T10:38:23.406Z,6.23
2024-02-24T10:40:43.632Z,6.24
2024-02-24T10:42:53.712Z,6.25
2024-02-24T10:45:03.711Z,6.27
2024-02-24T10:47:13.179Z,6.28
2024-02-24T10:49:23.045Z,6.30
2024-02-24T10:51:35.091Z,6.30
2024-02-24T10:53:52.687Z,6.31
2024-02-24T10:56:03.635Z,6.31
2024-02-24T10:58:13.095Z,6.32
2024-02-24T11:00:36.300Z,6.34
2024-02-24T11:02:46.096Z,6.34
2024-02-24T11:04:55.891Z,6.33
2024-02-24T11:07:08.038Z,6.34
2024-02-24T11:09:28.930Z,6.33
2024-02-24T11:11:39.902Z,6.34
2024-02-24T11:16:03.016Z,6.34
2024-02-24T11:18:12.675Z,6.32
2024-02-24T11:21:04.341Z,6.29
2024-02-24T11:23:26.970Z,6.25
2024-02-24T11:25:36.990Z,6.23
2024-02-24T11:27:58.029Z,6.22
2024-02-24T11:30:43.137Z,6.24
2024-02-24T11:32:58.383Z,6.26
2024-02-24T11:35:09.374Z,6.27
2024-02-24T11:37:21.366Z,6.28
2024-02-24T11:39:29.166Z,6.30
2024-02-24T11:41:41.766Z,6.30
2024-02-24T11:43:52.924Z,6.32
2024-02-24T11:46:03.936Z,6.34
2024-02-24T11:48:13.871Z,6.35
2024-02-24T11:50:23.696Z,6.37
2024-02-24T11:52:33.323Z,6.38
2024-02-24T11:54:42.986Z,6.41
2024-02-24T11:56:53.034Z,6.43
2024-02-24T11:59:03.341Z,6.47
2024-02-24T12:01:14.887Z,6.50
2024-02-24T12:03:25.551Z,6.53
2024-02-24T12:05:35.642Z,6.56
2024-02-24T12:07:45.907Z,6.60
2024-02-24T12:09:56.152Z,6.63
2024-02-24T12:12:05.756Z,6.65
2024-02-24T12:14:15.741Z,6.68
2024-02-24T12:16:26.736Z,6.70
2024-02-24T12:18:37.124Z,6.73
2024-02-24T12:20:49.901Z,6.75
2024-02-24T12:23:04.612Z,6.78
2024-02-24T12:25:22.753Z,6.79
2024-02-24T12:27:32.353Z,6.81
2024-02-24T12:29:42.438Z,6.81
2024-02-24T12:31:53.123Z,6.82
2024-02-24T12:34:02.852Z,6.84
2024-02-24T12:36:14.823Z,6.85
2024-02-24T12:38:24.338Z,6.89
2024-02-24T12:40:35.451Z,6.91
2024-02-24T12:42:45.044Z,6.91
2024-02-24T12:44:54.918Z,6.92
2024-02-24T12:47:04.536Z,6.93
2024-02-24T12:49:14.204Z,6.94
2024-02-24T12:51:23.725Z,6.96
2024-02-24T12:53:33.488Z,6.97
2024-02-24T12:55:43.666Z,6.98
2024-02-24T12:57:53.192Z,6.98
2024-02-24T13:00:04.555Z,6.99
2024-02-24T13:02:14.228Z,7.00
2024-02-24T13:04:23.778Z,7.02
2024-02-24T13:06:33.209Z,7.01
2024-02-24T13:08:43.140Z,7.02
2024-02-24T13:10:53.188Z,7.04
2024-02-24T13:13:02.878Z,7.04
2024-02-24T13:15:13.750Z,7.07
2024-02-24T13:17:23.707Z,7.07
2024-02-24T13:19:33.517Z,7.06
2024-02-24T13:21:42.984Z,7.05
2024-02-24T13:23:54.359Z,7.06
2024-02-24T13:26:04.075Z,7.05
2024-02-24T13:28:13.615Z,7.04
2024-02-24T13:30:23.272Z,7.04
2024-02-24T13:32:33.530Z,7.05
2024-02-24T13:34:43.022Z,7.06
2024-02-24T13:36:53.050Z,7.06
2024-02-24T13:39:02.863Z,7.06
2024-02-24T13:41:13.221Z,7.05
2024-02-24T13:43:23.211Z,7.03
2024-02-24T13:45:33.035Z,7.01
2024-02-24T13:47:42.638Z,6.99
2024-02-24T13:49:52.384Z,6.98
2024-02-24T13:52:01.896Z,6.97
2024-02-24T13:54:11.473Z,6.95
2024-02-24T13:56:21.060Z,6.93
2024-02-24T13:58:30.976Z,6.91
2024-02-24T14:00:40.557Z,6.90
2024-02-24T14:02:50.296Z,6.88
2024-02-24T14:05:00.009Z,6.84
2024-02-24T14:07:09.718Z,6.80
2024-02-24T14:09:19.452Z,6.78
2024-02-24T14:11:29.468Z,6.74
2024-02-24T14:13:38.942Z,6.70
2024-02-24T14:15:50.673Z,6.65
2024-02-24T14:18:00.889Z,6.61
2024-02-24T14:20:20.074Z,6.54
2024-02-24T14:22:35.225Z,6.49
2024-02-24T14:24:44.725Z,6.46
2024-02-24T14:26:55.641Z,6.41
2024-02-24T14:29:05.508Z,6.36
2024-02-24T14:31:15.474Z,6.33
2024-02-24T14:33:25.315Z,6.29
2024-02-24T14:35:36.881Z,6.27
2024-02-24T14:37:47.419Z,6.23
2024-02-24T14:39:58.736Z,6.20
2024-02-24T14:42:09.147Z,6.16
2024-02-24T14:44:18.928Z,6.13
2024-02-24T14:46:28.617Z,6.10
2024-02-24T14:48:38.185Z,6.09
2024-02-24T14:50:48.812Z,6.10
2024-02-24T14:52:58.373Z,6.12
2024-02-24T14:55:08.891Z,6.12
2024-02-24T14:57:18.499Z,6.12
2024-02-24T14:59:28.026Z,6.10
2024-02-24T15:01:37.331Z,6.08
2024-02-24T15:03:48.606Z,6.06
2024-02-24T15:05:58.898Z,6.04
2024-02-24T15:08:09.671Z,6.03
2024-02-24T15:10:19.390Z,6.01
2024-02-24T15:12:29.315Z,6.00
2024-02-24T15:14:39.755Z,5.99
2024-02-24T15:16:49.627Z,5.98
2024-02-24T15:18:59.311Z,5.96
2024-02-24T15:21:09.608Z,5.95
2024-02-24T15:23:18.931Z,5.94
2024-02-24T15:25:28.484Z,5.94
2024-02-24T15:27:38.421Z,5.94
2024-02-24T15:29:48.093Z,5.94
2024-02-24T15:31:57.759Z,5.93
2024-02-24T15:34:07.717Z,5.93
2024-02-24T15:36:17.549Z,5.93
2024-02-24T15:38:27.532Z,5.93
2024-02-24T15:40:40.770Z,5.93
2024-02-24T15:42:52.361Z,5.95
2024-02-24T15:45:01.751Z,5.98
2024-02-24T15:47:11.592Z,6.01
2024-02-24T15:49:21.327Z,6.04
2024-02-24T15:51:30.836Z,6.08
2024-02-24T15:53:40.924Z,6.14
2024-02-24T15:55:50.673Z,6.20
2024-02-24T15:58:01.625Z,6.26
2024-02-24T16:00:14.601Z,6.32
2024-02-24T16:02:23.990Z,6.38
2024-02-24T16:04:34.084Z,6.44
2024-02-24T16:06:43.757Z,6.50
2024-02-24T16:08:54.620Z,6.55
2024-02-24T16:11:04.878Z,6.60
2024-02-24T16:13:15.498Z,6.65
2024-02-24T16:15:25.546Z,6.71
2024-02-24T16:17:35.955Z,6.77
2024-02-24T16:19:47.172Z,6.82
2024-02-24T16:21:57.511Z,6.88
2024-02-24T16:24:08.505Z,6.93
2024-02-24T16:26:20.813Z,6.99
2024-02-24T16:28:30.864Z,7.05
2024-02-24T16:30:41.371Z,7.11
2024-02-24T16:32:51.541Z,7.15
2024-02-24T16:35:01.659Z,7.19
2024-02-24T16:37:11.834Z,7.23
2024-02-24T16:39:23.926Z,7.27
2024-02-24T16:41:34.208Z,7.31
2024-02-24T16:43:44.616Z,7.36
2024-02-24T16:45:54.787Z,7.40
2024-02-24T16:48:05.176Z,7.44
2024-02-24T16:50:19.524Z,7.50
2024-02-24T16:52:29.717Z,7.57
2024-02-24T16:54:39.734Z,7.63
2024-02-24T16:56:49.890Z,7.67
2024-02-24T16:59:00.479Z,7.72
2024-02-24T17:01:10.715Z,7.76
2024-02-24T17:03:21.134Z,7.83
2024-02-24T17:05:31.843Z,7.89
2024-02-24T17:07:42.194Z,7.96
2024-02-24T17:09:52.533Z,8.03
2024-02-24T17:12:04.638Z,8.11
2024-02-24T17:14:12.738Z,8.19
2024-02-24T17:16:23.158Z,8.27
2024-02-24T17:18:36.956Z,8.37
2024-02-24T17:20:47.572Z,8.47
2024-02-24T17:23:00.107Z,8.55
2024-02-24T17:25:12.268Z,8.62
2024-02-24T17:27:22.442Z,8.71
2024-02-24T17:29:32.672Z,8.77
2024-02-24T17:31:42.812Z,8.85
2024-02-24T17:33:54.182Z,8.94
2024-02-24T17:36:04.389Z,9.03
2024-02-24T17:38:14.599Z,9.12
2024-02-24T17:40:25.106Z,9.21
2024-02-24T17:42:35.491Z,9.28
2024-02-24T17:44:46.026Z,9.34
2024-02-24T17:46:55.987Z,9.37
2024-02-24T17:49:06.336Z,9.42
2024-02-24T17:51:19.196Z,9.46
2024-02-24T17:53:29.371Z,9.51
2024-02-24T17:55:39.552Z,9.56
2024-02-24T17:57:49.729Z,9.58
2024-02-24T18:00:00.441Z,9.54
2024-02-24T18:02:10.965Z,9.51
2024-02-24T18:04:21.090Z,9.51
2024-02-24T18:06:31.644Z,9.53
2024-02-24T18:08:41.981Z,9.53
2024-02-24T18:10:52.112Z,9.55
2024-02-24T18:13:02.335Z,9.50
2024-02-24T18:15:14.423Z,9.45
2024-02-24T18:17:24.780Z,9.40
2024-02-24T18:19:34.883Z,9.39
2024-02-24T18:21:44.838Z,9.39
2024-02-24T18:23:55.382Z,9.39
2024-02-24T18:26:05.978Z,9.36
2024-02-24T18:28:16.039Z,9.34
2024-02-24T18:30:26.013Z,9.34
2024-02-24T18:32:36.298Z,9.36
2024-02-24T18:34:46.585Z,9.37
2024-02-24T18:36:56.704Z,9.39
2024-02-24T18:39:06.851Z,9.43
2024-02-24T18:41:17.048Z,9.51
2024-02-24T18:43:27.563Z,9.60
2024-02-24T18:45:38.415Z,9.70
2024-02-24T18:47:48.527Z,9.79
2024-02-24T18:49:58.919Z,9.87
2024-02-24T18:52:11.933Z,9.96
2024-02-24T18:54:22.033Z,10.04
2024-02-24T18:56:32.062Z,10.11
2024-02-24T18:58:42.345Z,10.14
2024-02-24T19:00:52.628Z,10.09
2024-02-24T19:03:02.986Z,10.05
2024-02-24T19:05:13.818Z,10.09
2024-02-24T19:07:24.253Z,10.13
2024-02-24T19:09:34.521Z,10.19
2024-02-24T19:11:45.871Z,10.25
2024-02-24T19:13:56.362Z,10.34
2024-02-24T19:16:07.175Z,10.48
2024-02-24T19:18:17.526Z,10.59
2024-02-24T19:20:27.702Z,10.71
2024-02-24T19:22:38.704Z,10.79
2024-02-24T19:24:48.610Z,10.85
2024-02-24T19:26:59.032Z,10.89
2024-02-24T19:29:09.910Z,10.94
2024-02-24T19:31:20.104Z,10.94
2024-02-24T19:33:30.346Z,10.94
2024-02-24T19:35:42.802Z,10.97
2024-02-24T19:37:52.790Z,11.04
2024-02-24T19:40:02.871Z,11.10
2024-02-24T19:42:13.405Z,11.13
2024-02-24T19:44:23.503Z,11.12
2024-02-24T19:46:33.714Z,11.12
2024-02-24T19:48:44.677Z,11.11
2024-02-24T19:50:54.914Z,11.10
2024-02-24T19:53:04.799Z,11.09
2024-02-24T19:55:17.772Z,11.09
2024-02-24T19:57:28.658Z,11.08
2024-02-24T19:59:40.573Z,11.02
2024-02-24T20:01:51.782Z,10.99
2024-02-24T20:04:01.939Z,10.95
2024-02-24T20:06:13.213Z,10.87
2024-02-24T20:08:24.188Z,10.79
2024-02-24T20:10:34.533Z,10.72
2024-02-24T20:12:44.591Z,10.66
2024-02-24T20:14:54.776Z,10.61
2024-02-24T20:17:05.128Z,10.53
2024-02-24T20:19:15.093Z,10.52
2024-02-24T20:21:25.002Z,10.54
2024-02-24T20:23:34.807Z,10.56
2024-02-24T20:25:44.858Z,10.53
2024-02-24T20:27:54.687Z,10.51
2024-02-24T20:30:04.518Z,10.52
2024-02-24T20:32:14.480Z,10.52
2024-02-24T20:34:24.543Z,10.53
2024-02-24T20:36:33.810Z,10.50
2024-02-24T20:38:43.222Z,10.48
2024-02-24T20:40:53.859Z,10.48
2024-02-24T20:43:03.121Z,10.48
2024-02-24T20:45:14.515Z,10.50
2024-02-24T20:47:24.280Z,10.52
2024-02-24T20:49:33.531Z,10.51
2024-02-24T20:51:43.494Z,10.53
2024-02-24T20:54:11.817Z,10.56
2024-02-24T20:56:21.724Z,10.58
2024-02-24T20:58:31.931Z,10.60
2024-02-24T21:32:23.743Z,11.11
2024-02-24T21:34:34.705Z,11.09
2024-02-24T21:36:48.345Z,11.10
2024-02-24T21:38:59.321Z,11.11
2024-02-24T21:41:12.683Z,11.14
2024-02-24T21:43:24.393Z,11.23
2024-02-24T21:45:35.593Z,11.28
2024-02-24T21:47:46.819Z,11.30
2024-02-24T21:49:59.376Z,11.34
2024-02-24T21:52:08.643Z,11.41
2024-02-24T21:54:19.631Z,11.41
2024-02-24T21:56:38.980Z,11.38
2024-02-24T21:58:50.951Z,11.37
2024-02-24T22:01:02.190Z,11.45
2024-02-24T22:03:17.054Z,11.56
2024-02-24T22:05:29.777Z,11.66
2024-02-24T22:07:44.335Z,11.73
2024-02-24T22:09:56.020Z,11.78
2024-02-24T22:12:10.477Z,11.82
2024-02-24T22:14:23.899Z,11.89
2024-02-24T22:16:39.724Z,11.97
2024-02-24T22:18:52.534Z,12.03
2024-02-24T22:21:07.786Z,12.01
2024-02-24T22:23:17.568Z,12.04
2024-02-24T22:25:27.649Z,12.11
2024-02-24T22:27:38.920Z,12.14
2024-02-24T22:29:55.169Z,12.16
2024-02-24T22:32:11.942Z,12.14
2024-02-24T22:34:21.682Z,12.11
2024-02-24T22:36:32.342Z,12.17
2024-02-24T22:38:42.141Z,12.27
2024-02-24T22:40:51.771Z,12.33
2024-02-24T22:43:01.276Z,12.31
2024-02-24T22:45:12.487Z,12.27
2024-02-24T22:47:22.180Z,12.30
2024-02-24T22:49:32.482Z,12.37
2024-02-24T22:51:42.266Z,12.40
2024-02-24T22:53:51.559Z,12.45
2024-02-24T22:56:01.179Z,12.53
2024-02-24T22:58:10.726Z,12.51
2024-02-24T23:00:22.367Z,12.45
2024-02-24T23:02:32.739Z,12.46
2024-02-24T23:04:42.271Z,12.52
2024-02-24T23:06:52.121Z,12.51
2024-02-24T23:09:02.172Z,12.49
2024-02-24T23:11:16.750Z,12.49
2024-02-24T23:13:31.908Z,12.53
2024-02-24T23:15:41.878Z,12.50
2024-02-24T23:17:52.134Z,12.45
2024-02-24T23:20:01.759Z,12.44
2024-02-24T23:22:11.573Z,12.40
2024-02-24T23:24:21.414Z,12.31
2024-02-24T23:26:30.974Z,12.21
2024-02-24T23:28:40.754Z,12.15
2024-02-24T23:30:50.372Z,12.03
2024-02-24T23:33:00.024Z,11.94
2024-02-24T23:35:10.925Z,11.92
2024-02-24T23:37:20.969Z,11.88
2024-02-24T23:39:30.505Z,11.90
2024-02-24T23:41:40.521Z,11.93
2024-02-24T23:43:50.293Z,11.89
2024-02-24T23:45:59.957Z,11.89
2024-02-24T23:48:10.362Z,11.89
2024-02-24T23:50:20.089Z,11.87
2024-02-24T23:52:29.626Z,11.84
2024-02-24T23:54:39.169Z,11.75
2024-02-24T23:56:48.649Z,11.65
2024-02-24T23:58:58.292Z,11.61
